Time;durP1;ratioP1;P1;durP2;ratioP2;P2;SDS_P1;SDS_P2;PMS_P1;PMS_P2;Temp;Humidity;BMP_temperature;BMP_pressure;BME280_temperature;BME280_humidity;BME280_pressure;Samples;Min_cycle;Max_cycle;Signal;HPM_P1;HPM_P2
2021/06/21 00:00:10;;;;;;;11.07;4.57;;;17.70;99.90;;;;;;5073882;28;20021;-76
2021/06/21 00:02:36;;;;;;;12.88;4.18;;;17.70;99.90;;;;;;5073669;28;20020;-74
2021/06/21 00:05:02;;;;;;;10.85;4.32;;;17.80;99.90;;;;;;5072433;28;20058;-74
2021/06/21 00:07:28;;;;;;;10.50;4.05;;;17.80;99.90;;;;;;5072147;28;20024;-74
2021/06/21 00:09:53;;;;;;;15.90;4.00;;;17.80;99.90;;;;;;5071465;28;20017;-74
2021/06/21 00:12:19;;;;;;;9.40;4.22;;;17.90;99.90;;;;;;5072003;28;20698;-73
2021/06/21 00:14:45;;;;;;;9.85;3.13;;;17.90;99.90;;;;;;5071671;28;20039;-73
2021/06/21 00:17:11;;;;;;;7.60;3.28;;;17.90;99.90;;;;;;5072005;28;20025;-74
2021/06/21 00:19:37;;;;;;;15.57;3.90;;;17.90;99.90;;;;;;5071189;28;20086;-73
2021/06/21 00:22:05;;;;;;;11.65;2.97;;;17.70;99.90;;;;;;5071655;28;20024;-74
2021/06/21 00:24:31;;;;;;;10.23;2.97;;;17.40;99.90;;;;;;5071976;28;20029;-74
2021/06/21 00:26:57;;;;;;;7.53;2.72;;;17.20;99.90;;;;;;5071938;28;20025;-75
2021/06/21 00:29:23;;;;;;;10.27;2.90;;;17.20;99.90;;;;;;5069666;28;20081;-75
2021/06/21 00:31:49;;;;;;;11.65;3.28;;;17.20;99.90;;;;;;5071501;28;20029;-74
2021/06/21 00:34:14;;;;;;;9.77;3.28;;;17.10;99.90;;;;;;5071463;28;20020;-74
2021/06/21 00:36:40;;;;;;;10.70;3.25;;;17.10;99.90;;;;;;5071821;28;20428;-74
2021/06/21 00:39:08;;;;;;;10.55;3.45;;;17.10;99.90;;;;;;5053805;28;20471;-73
2021/06/21 00:41:35;;;;;;;10.40;2.90;;;17.00;99.90;;;;;;5053054;28;20029;-74
2021/06/21 00:44:00;;;;;;;11.75;3.00;;;16.90;99.90;;;;;;5071085;28;20048;-75
2021/06/21 00:46:27;;;;;;;7.65;2.78;;;16.90;99.90;;;;;;5071650;28;20029;-74
2021/06/21 00:48:52;;;;;;;11.52;2.95;;;16.90;99.90;;;;;;5071775;28;20387;-74
2021/06/21 00:51:18;;;;;;;9.23;2.97;;;17.10;99.90;;;;;;5053141;28;20016;-75
2021/06/21 00:53:45;;;;;;;12.13;3.38;;;17.10;99.90;;;;;;5071440;28;20084;-74
2021/06/21 00:56:11;;;;;;;11.27;2.78;;;17.10;99.90;;;;;;5053610;28;20025;-74
2021/06/21 00:58:39;;;;;;;14.32;3.05;;;17.10;99.90;;;;;;5071407;28;20036;-75
2021/06/21 01:01:06;;;;;;;10.32;2.72;;;17.20;99.90;;;;;;5070934;28;20114;-75
2021/06/21 01:03:31;;;;;;;12.18;3.00;;;17.20;99.90;;;;;;5071520;28;20031;-74
2021/06/21 01:05:57;;;;;;;14.60;3.30;;;17.20;99.90;;;;;;5073847;28;20029;-74
2021/06/21 01:08:23;;;;;;;15.13;3.30;;;17.30;99.90;;;;;;5057418;28;20424;-75
2021/06/21 01:10:51;;;;;;;11.43;3.47;;;17.40;99.90;;;;;;5056821;28;20476;-74
2021/06/21 01:13:45;;;;;;;9.15;3.10;;;17.40;99.90;;;;;;5074859;28;20020;-74
2021/06/21 01:16:38;;;;;;;15.02;2.88;;;17.30;99.90;;;;;;5075276;28;20095;-74
2021/06/21 01:19:23;;;;;;;13.15;3.20;;;17.00;99.90;;;;;;5075482;28;20418;-76
2021/06/21 01:22:08;;;;;;;12.77;2.80;;;16.80;99.90;;;;;;5074983;28;20016;-74
2021/06/21 01:25:03;;;;;;;7.75;2.85;;;16.80;99.90;;;;;;5074866;28;20052;-74
2021/06/21 01:28:17;;;;;;;5.65;2.55;;;16.80;99.90;;;;;;5057079;28;20025;-75
2021/06/21 01:31:15;;;;;;;11.32;3.17;;;16.90;99.90;;;;;;5060715;28;20433;-76
2021/06/21 01:33:42;;;;;;;15.07;2.83;;;16.90;99.90;;;;;;5066333;28;20028;-75
2021/06/21 01:36:10;;;;;;;11.25;3.03;;;16.90;99.90;;;;;;5074804;28;20032;-74
2021/06/21 01:38:42;;;;;;;11.85;3.00;;;16.80;99.90;;;;;;5074673;28;20429;-74
2021/06/21 01:41:14;;;;;;;6.20;2.75;;;16.70;99.90;;;;;;5056069;28;20060;-74
2021/06/21 01:43:41;;;;;;;;;;;16.80;99.90;;;;;;5075074;28;20043;-74
2021/06/21 01:46:10;;;;;;;12.43;2.95;;;16.70;99.90;;;;;;5074507;28;19915;-75
2021/06/21 01:48:44;;;;;;;12.07;3.25;;;16.80;99.90;;;;;;5074600;28;20046;-75
2021/06/21 01:51:10;;;;;;;13.43;3.15;;;16.90;99.90;;;;;;5073866;28;20076;-76
2021/06/21 01:53:39;;;;;;;9.25;2.70;;;16.80;99.90;;;;;;5074427;28;20494;-75
2021/06/21 01:56:11;;;;;;;12.57;3.42;;;16.60;99.90;;;;;;5088194;28;20028;-75
2021/06/21 01:58:38;;;;;;;8.68;3.35;;;16.70;99.90;;;;;;5094743;28;20103;-74
2021/06/21 02:01:14;;;;;;;9.18;3.03;;;16.70;99.90;;;;;;5094451;28;20046;-75
2021/06/21 02:03:44;;;;;;;15.25;3.40;;;16.80;99.90;;;;;;5093781;28;20024;-75
2021/06/21 02:06:11;;;;;;;10.05;3.38;;;16.90;99.90;;;;;;5056187;28;20399;-76
2021/06/21 02:08:37;;;;;;;18.65;4.95;;;17.00;99.90;;;;;;5072876;28;20424;-75
2021/06/21 02:11:04;;;;;;;19.45;6.15;;;17.10;99.90;;;;;;5073498;28;20024;-74
2021/06/21 02:13:32;;;;;;;18.30;8.68;;;17.00;99.90;;;;;;5072190;28;20244;-76
2021/06/21 02:15:58;;;;;;;27.70;10.50;;;17.10;99.90;;;;;;5072662;28;20031;-75
2021/06/21 02:18:24;;;;;;;23.45;9.85;;;17.00;99.90;;;;;;5072960;28;20096;-76
2021/06/21 02:20:53;;;;;;;22.00;9.95;;;17.00;99.90;;;;;;5073204;28;20567;-76
2021/06/21 02:23:22;;;;;;;20.83;9.70;;;17.10;99.90;;;;;;5073596;28;20036;-74
2021/06/21 02:25:49;;;;;;;20.17;8.88;;;17.10;99.90;;;;;;5073764;28;20025;-74
2021/06/21 02:28:21;;;;;;;21.40;9.65;;;17.10;99.90;;;;;;5073666;28;20031;-75
2021/06/21 02:30:51;;;;;;;16.73;7.40;;;17.10;99.90;;;;;;5072937;28;20024;-73
2021/06/21 02:33:18;;;;;;;18.88;7.90;;;17.10;99.90;;;;;;5085614;28;20020;-72
2021/06/21 02:35:45;;;;;;;15.02;6.68;;;17.10;99.90;;;;;;5073202;28;20031;-72
2021/06/21 02:38:11;;;;;;;18.20;6.88;;;17.10;99.90;;;;;;5089558;28;20071;-73
2021/06/21 02:40:36;;;;;;;12.20;5.57;;;17.20;99.90;;;;;;5073236;28;20047;-73
2021/06/21 02:43:02;;;;;;;15.52;4.45;;;17.20;99.90;;;;;;5091173;28;20503;-72
2021/06/21 02:45:29;;;;;;;15.75;4.95;;;17.30;99.90;;;;;;5091138;28;20060;-72
2021/06/21 02:47:55;;;;;;;15.80;4.78;;;17.30;99.90;;;;;;5092190;28;20020;-73
2021/06/21 02:50:21;;;;;;;9.38;3.78;;;17.20;99.90;;;;;;5071758;28;20134;-74
2021/06/21 02:53:07;;;;;;;12.50;3.50;;;17.20;99.90;;;;;;5094940;28;20474;-73
2021/06/21 02:56:02;;;;;;;11.82;2.97;;;17.10;99.90;;;;;;5088149;28;20069;-74
2021/06/21 02:58:31;;;;;;;14.60;3.60;;;17.20;99.90;;;;;;5073157;28;20040;-73
2021/06/21 03:01:01;;;;;;;9.23;3.08;;;17.30;99.90;;;;;;5089591;28;20032;-73
2021/06/21 03:03:31;;;;;;;16.55;3.58;;;17.40;99.90;;;;;;5085228;28;20042;-73
2021/06/21 03:05:58;;;;;;;13.48;2.97;;;17.50;99.90;;;;;;5072192;28;20698;-73
2021/06/21 03:08:25;;;;;;;8.98;3.10;;;17.40;99.90;;;;;;5091759;28;20024;-73
2021/06/21 03:10:51;;;;;;;14.50;3.30;;;17.30;99.90;;;;;;5071349;28;20047;-72
2021/06/21 03:13:19;;;;;;;19.05;3.90;;;17.40;99.90;;;;;;5091794;28;20024;-73
2021/06/21 03:15:45;;;;;;;12.50;3.53;;;17.40;99.90;;;;;;5084466;28;20020;-72
2021/06/21 03:18:12;;;;;;;13.40;3.88;;;17.40;99.90;;;;;;5073567;28;20157;-73
2021/06/21 03:20:38;;;;;;;9.23;3.25;;;17.20;99.90;;;;;;5089549;28;20023;-73
2021/06/21 03:23:05;;;;;;;16.30;3.70;;;17.10;99.90;;;;;;5091536;28;20378;-73
2021/06/21 03:25:34;;;;;;;14.05;3.70;;;17.10;99.90;;;;;;5089498;28;20036;-73
2021/06/21 03:28:11;;;;;;;16.05;3.50;;;17.10;99.90;;;;;;5091328;28;20016;-72
2021/06/21 03:30:44;;;;;;;11.63;4.13;;;17.10;99.90;;;;;;5082935;28;20107;-73
2021/06/21 03:33:10;;;;;;;20.25;4.03;;;17.20;99.90;;;;;;5090717;28;20453;-73
2021/06/21 03:35:36;;;;;;;11.07;3.80;;;17.30;99.90;;;;;;5088675;28;20104;-74
2021/06/21 03:38:23;;;;;;;11.55;3.10;;;17.30;99.90;;;;;;5090531;28;20028;-75
2021/06/21 03:40:50;;;;;;;10.85;2.90;;;17.20;99.90;;;;;;5085914;28;20027;-73
2021/06/21 03:43:18;;;;;;;12.98;2.90;;;17.10;99.90;;;;;;5090227;28;20020;-73
2021/06/21 03:45:45;;;;;;;19.05;3.13;;;17.10;99.90;;;;;;5087251;28;20451;-74
2021/06/21 03:48:10;;;;;;;12.07;2.55;;;17.00;99.90;;;;;;5091413;28;20023;-74
2021/06/21 03:50:37;;;;;;;13.43;2.40;;;16.90;99.90;;;;;;5064423;28;20028;-75
2021/06/21 03:53:04;;;;;;;16.10;2.80;;;16.90;99.90;;;;;;5091053;28;20016;-74
2021/06/21 03:55:30;;;;;;;16.73;2.88;;;17.20;99.90;;;;;;5089253;28;20044;-73
2021/06/21 03:57:57;;;;;;;13.63;2.53;;;17.20;99.90;;;;;;5090904;28;20046;-73
2021/06/21 04:00:28;;;;;;;7.60;2.03;;;17.10;99.90;;;;;;5071654;28;20016;-73
2021/06/21 04:02:57;;;;;;;11.00;2.95;;;17.00;99.90;;;;;;5087885;28;20043;-74
2021/06/21 04:05:23;;;;;;;10.07;2.60;;;17.00;99.90;;;;;;5091126;28;20020;-73
2021/06/21 04:07:50;;;;;;;10.40;2.20;;;17.00;99.90;;;;;;5090919;28;20060;-75
2021/06/21 04:10:19;;;;;;;14.02;2.67;;;17.10;99.90;;;;;;5072840;28;20027;-73
2021/06/21 04:12:47;;;;;;;15.68;3.05;;;17.20;99.90;;;;;;5074858;28;20070;-73
2021/06/21 04:15:14;;;;;;;8.57;2.38;;;17.30;99.90;;;;;;5072027;28;20457;-74
2021/06/21 04:17:41;;;;;;;7.03;2.38;;;17.30;99.90;;;;;;5090688;28;20685;-75
2021/06/21 04:20:15;;;;;;;8.57;2.25;;;17.40;99.90;;;;;;5084675;28;20574;-72
2021/06/21 04:22:42;;;;;;;8.27;2.50;;;17.30;99.90;;;;;;5078605;28;20059;-73
2021/06/21 04:25:10;;;;;;;9.23;2.25;;;17.40;99.90;;;;;;5083390;28;20065;-75
2021/06/21 04:27:36;;;;;;;20.27;2.83;;;17.50;99.90;;;;;;5072375;28;20031;-74
2021/06/21 04:30:05;;;;;;;13.27;2.83;;;17.60;99.90;;;;;;5089571;28;20016;-74
2021/06/21 04:32:30;;;;;;;11.20;2.50;;;17.70;99.90;;;;;;5090710;28;20022;-74
2021/06/21 04:34:56;;;;;;;14.38;2.90;;;17.70;99.90;;;;;;5090969;28;20028;-74
2021/06/21 04:37:22;;;;;;;15.65;3.53;;;17.70;99.90;;;;;;5090332;28;20060;-74
2021/06/21 04:39:47;;;;;;;16.17;2.90;;;17.70;99.90;;;;;;5089793;28;20595;-75
2021/06/21 04:42:13;;;;;;;11.50;3.50;;;17.70;99.90;;;;;;5091934;28;20028;-75
2021/06/21 04:44:38;;;;;;;19.23;3.80;;;17.70;99.90;;;;;;5091382;28;20088;-75
2021/06/21 04:47:04;;;;;;;18.27;4.20;;;17.80;99.90;;;;;;5073195;28;20017;-75
2021/06/21 04:49:30;;;;;;;13.00;2.83;;;17.80;99.90;;;;;;5090684;28;20035;-72
2021/06/21 04:51:58;;;;;;;14.20;3.00;;;17.80;99.90;;;;;;5092485;28;20058;-73
2021/06/21 04:54:24;;;;;;;14.77;2.97;;;17.70;99.90;;;;;;5092393;28;20069;-73
2021/06/21 04:56:50;;;;;;;13.73;3.40;;;17.70;99.90;;;;;;5054267;28;20036;-72
2021/06/21 04:59:15;;;;;;;15.18;3.67;;;17.60;99.90;;;;;;5071419;28;20029;-72
2021/06/21 05:01:41;;;;;;;10.98;3.05;;;17.60;99.90;;;;;;5070049;28;20375;-72
2021/06/21 05:04:07;;;;;;;14.45;3.38;;;17.60;99.90;;;;;;5071867;28;20398;-72
2021/06/21 05:06:37;;;;;;;12.88;3.45;;;17.60;99.90;;;;;;5072993;28;20103;-73
2021/06/21 05:09:05;;;;;;;12.13;3.70;;;17.70;99.90;;;;;;5072779;28;20028;-71
2021/06/21 05:11:32;;;;;;;15.13;3.28;;;17.60;99.90;;;;;;5052341;28;20029;-72
2021/06/21 05:13:58;;;;;;;18.92;3.42;;;17.60;99.90;;;;;;5051696;28;20024;-70
2021/06/21 05:16:24;;;;;;;20.75;3.38;;;17.60;99.90;;;;;;5071395;28;20370;-74
2021/06/21 05:18:49;;;;;;;10.00;3.22;;;17.50;99.90;;;;;;5070914;28;20029;-75
2021/06/21 05:21:15;;;;;;;17.48;3.20;;;17.60;99.90;;;;;;5074074;28;20017;-75
2021/06/21 05:23:41;;;;;;;13.07;2.90;;;17.60;99.90;;;;;;5073556;28;20524;-73
2021/06/21 05:26:06;;;;;;;12.30;2.25;;;17.60;99.90;;;;;;5074164;28;20375;-76
2021/06/21 05:28:32;;;;;;;13.10;2.20;;;17.70;99.90;;;;;;5073673;28;20043;-74
2021/06/21 05:30:58;;;;;;;14.05;2.72;;;17.90;99.90;;;;;;5075153;28;20024;-74
2021/06/21 05:33:24;;;;;;;16.27;2.50;;;18.20;99.90;;;;;;5072562;28;20025;-75
2021/06/21 05:35:50;;;;;;;13.15;3.22;;;18.20;99.90;;;;;;5072391;28;20624;-75
2021/06/21 05:38:16;;;;;;;12.88;1.98;;;18.40;99.90;;;;;;5071544;28;20028;-73
2021/06/21 05:40:41;;;;;;;13.55;2.47;;;18.30;99.90;;;;;;5073287;28;20039;-74
2021/06/21 05:43:07;;;;;;;7.60;2.15;;;18.40;99.90;;;;;;5072133;28;20036;-72
2021/06/21 05:45:33;;;;;;;9.13;2.22;;;18.50;99.90;;;;;;5073542;28;20467;-73
2021/06/21 05:47:59;;;;;;;14.77;2.45;;;18.60;99.90;;;;;;5075906;28;20052;-75
2021/06/21 05:50:24;;;;;;;8.55;2.70;;;18.70;99.90;;;;;;5054410;28;20035;-74
2021/06/21 05:52:50;;;;;;;10.88;1.95;;;18.70;99.90;;;;;;5074027;28;20042;-74
2021/06/21 05:55:19;;;;;;;13.93;2.72;;;18.80;99.90;;;;;;5075839;28;20024;-72
2021/06/21 05:57:46;;;;;;;13.02;2.15;;;18.90;99.90;;;;;;5075367;28;20020;-74
2021/06/21 06:00:13;;;;;;;7.88;2.13;;;19.00;99.90;;;;;;5064092;28;20621;-73
2021/06/21 06:02:38;;;;;;;12.48;2.33;;;19.00;99.90;;;;;;5041785;28;20078;-74
2021/06/21 06:05:05;;;;;;;10.98;2.63;;;19.20;99.90;;;;;;5068106;28;20021;-74
2021/06/21 06:07:32;;;;;;;10.70;2.28;;;19.40;99.90;;;;;;5067149;28;20120;-74
2021/06/21 06:09:57;;;;;;;11.75;2.35;;;19.40;99.90;;;;;;5070619;28;20051;-75
2021/06/21 06:12:24;;;;;;;9.98;2.08;;;19.50;99.90;;;;;;5077755;28;20020;-73
2021/06/21 06:14:50;;;;;;;12.68;2.08;;;19.40;99.90;;;;;;5077475;28;20028;-73
2021/06/21 06:17:16;;;;;;;8.02;2.08;;;19.40;99.90;;;;;;5078071;28;20486;-75
2021/06/21 06:19:42;;;;;;;10.05;2.40;;;19.40;99.90;;;;;;5081873;28;20024;-76
2021/06/21 06:22:08;;;;;;;11.75;2.00;;;19.40;99.90;;;;;;5089450;28;20422;-75
2021/06/21 06:24:35;;;;;;;18.08;2.47;;;19.30;99.90;;;;;;5102503;28;20024;-73
2021/06/21 06:27:01;;;;;;;5.25;1.83;;;19.00;99.90;;;;;;5091006;28;20017;-76
2021/06/21 06:29:29;;;;;;;5.07;2.10;;;19.00;99.90;;;;;;5091403;28;20017;-75
2021/06/21 06:31:55;;;;;;;16.13;2.67;;;19.20;99.90;;;;;;5074244;28;20044;-74
2021/06/21 06:34:23;;;;;;;7.93;2.20;;;19.00;99.90;;;;;;5069816;28;20017;-74
2021/06/21 06:36:49;;;;;;;9.68;2.10;;;18.90;99.90;;;;;;5071448;28;20033;-75
2021/06/21 06:39:15;;;;;;;16.98;2.38;;;19.20;99.90;;;;;;5086481;28;20039;-75
2021/06/21 06:41:40;;;;;;;13.02;2.13;;;19.30;99.90;;;;;;5089041;28;20316;-76
2021/06/21 06:44:06;;;;;;;16.42;2.25;;;19.30;99.90;;;;;;5071114;28;20089;-76
2021/06/21 06:46:32;;;;;;;11.10;2.33;;;19.30;99.90;;;;;;5070588;28;20033;-74
2021/06/21 06:48:58;;;;;;;12.77;2.55;;;19.40;99.90;;;;;;5071200;28;20017;-76
2021/06/21 06:51:24;;;;;;;13.50;2.45;;;19.60;99.90;;;;;;5068641;28;20029;-73
2021/06/21 06:54:04;;;;;;;11.43;1.80;;;19.80;99.90;;;;;;5066855;28;20068;-75
2021/06/21 06:59:15;;;;;;;7.55;1.70;;;20.00;99.90;;;;;;5066021;28;20040;-77
2021/06/21 07:01:41;;;;;;;9.45;2.05;;;20.20;99.90;;;;;;5066021;28;20037;-76
2021/06/21 07:04:07;;;;;;;9.27;2.00;;;20.30;99.90;;;;;;5069177;28;20036;-75
2021/06/21 07:06:32;;;;;;;8.52;2.08;;;20.30;99.90;;;;;;5046446;28;20538;-74
2021/06/21 07:08:58;;;;;;;11.27;2.00;;;20.30;99.90;;;;;;5068794;28;20596;-76
2021/06/21 07:11:25;;;;;;;7.90;2.17;;;20.40;99.90;;;;;;5077586;28;20052;-75
2021/06/21 07:13:50;;;;;;;9.48;1.63;;;20.60;99.90;;;;;;5074786;28;20020;-76
2021/06/21 07:16:16;;;;;;;14.15;2.40;;;20.80;99.90;;;;;;5082909;28;20031;-75
2021/06/21 07:18:42;;;;;;;10.32;2.10;;;20.70;99.90;;;;;;5082969;28;20032;-76
2021/06/21 07:21:07;;;;;;;8.43;2.53;;;20.90;99.90;;;;;;5079385;28;20082;-76
2021/06/21 07:23:33;;;;;;;8.27;1.58;;;21.10;99.90;;;;;;5076241;28;20024;-76
2021/06/21 07:25:59;;;;;;;7.05;2.17;;;21.30;99.90;;;;;;5074746;28;20021;-74
2021/06/21 07:28:26;;;;;;;7.45;1.90;;;21.20;99.90;;;;;;5075978;28;20081;-75
2021/06/21 07:30:52;;;;;;;9.88;1.58;;;21.50;99.90;;;;;;5074442;28;20573;-77
2021/06/21 07:33:17;;;;;;;9.30;1.88;;;21.40;99.90;;;;;;5077774;28;20048;-76
2021/06/21 07:35:43;;;;;;;6.82;1.73;;;21.10;99.90;;;;;;5076252;28;20427;-77
2021/06/21 07:38:09;;;;;;;5.35;1.42;;;21.20;99.90;;;;;;5077261;28;20028;-77
2021/06/21 07:40:37;;;;;;;9.18;1.80;;;21.40;99.90;;;;;;5081747;28;20017;-76
2021/06/21 07:43:03;;;;;;;4.20;1.08;;;21.60;99.90;;;;;;5078841;28;20471;-76
2021/06/21 07:45:29;;;;;;;7.00;1.40;;;21.60;99.90;;;;;;5077778;28;20025;-77
2021/06/21 07:47:58;;;;;;;8.95;1.48;;;21.70;99.90;;;;;;5074973;28;20086;-75
2021/06/21 07:50:24;;;;;;;7.60;2.40;;;21.70;99.90;;;;;;5058823;28;20029;-78
2021/06/21 07:52:50;;;;;;;6.55;1.40;;;21.80;99.90;;;;;;5074971;28;20031;-75
2021/06/21 07:55:15;;;;;;;4.57;1.17;;;22.10;99.90;;;;;;5074854;28;20016;-75
2021/06/21 07:57:41;;;;;;;5.25;1.38;;;21.90;99.90;;;;;;5073270;28;20100;-76
2021/06/21 08:00:08;;;;;;;8.50;1.50;;;22.00;99.90;;;;;;5057785;28;20121;-76
2021/06/21 08:02:33;;;;;;;7.65;1.50;;;21.80;99.90;;;;;;5075212;28;20020;-76
2021/06/21 08:04:59;;;;;;;6.30;1.88;;;21.50;99.90;;;;;;5072726;28;20034;-71
2021/06/21 08:07:25;;;;;;;3.22;1.13;;;21.60;99.90;;;;;;5071834;28;20483;-73
2021/06/21 08:09:50;;;;;;;2.33;1.08;;;21.90;99.90;;;;;;5080591;28;20028;-75
2021/06/21 08:12:16;;;;;;;10.10;1.40;;;22.30;99.90;;;;;;5092085;28;20504;-74
2021/06/21 08:14:43;;;;;;;7.82;1.60;;;22.20;99.90;;;;;;5091183;28;20042;-74
2021/06/21 08:17:09;;;;;;;3.15;1.23;;;22.10;99.90;;;;;;5093975;28;20386;-73
2021/06/21 08:19:35;;;;;;;7.30;1.83;;;22.40;99.90;;;;;;5069890;28;20409;-73
2021/06/21 08:22:00;;;;;;;3.97;1.30;;;22.60;99.90;;;;;;5071793;28;20099;-74
2021/06/21 08:24:26;;;;;;;5.32;1.10;;;22.60;99.90;;;;;;5071806;28;20027;-75
2021/06/21 08:26:53;;;;;;;4.40;1.13;;;22.50;99.90;;;;;;5072466;28;20029;-76
2021/06/21 08:29:19;;;;;;;2.58;1.00;;;22.90;99.90;;;;;;5077704;28;20526;-78
2021/06/21 08:31:45;;;;;;;3.53;1.17;;;23.10;99.90;;;;;;5073006;28;20103;-75
2021/06/21 08:34:10;;;;;;;5.90;1.20;;;23.50;99.90;;;;;;5091468;28;20023;-76
2021/06/21 08:36:36;;;;;;;6.35;1.27;;;23.80;99.90;;;;;;5091545;28;20091;-75
2021/06/21 08:39:03;;;;;;;3.10;0.90;;;23.90;99.90;;;;;;5098862;28;20031;-77
2021/06/21 08:41:29;;;;;;;4.07;1.17;;;23.90;99.90;;;;;;5087238;28;20028;-76
2021/06/21 08:43:54;;;;;;;4.70;1.23;;;23.80;99.90;;;;;;5063116;28;20047;-77
2021/06/21 08:46:20;;;;;;;4.55;0.98;;;24.20;99.90;;;;;;5059204;28;20042;-76
2021/06/21 08:48:47;;;;;;;7.22;1.25;;;24.30;99.90;;;;;;5075741;28;20544;-75
2021/06/21 08:51:15;;;;;;;3.17;1.02;;;24.20;99.90;;;;;;5076340;28;20412;-77
2021/06/21 08:53:41;;;;;;;2.08;1.40;;;24.80;99.90;;;;;;5094212;28;20032;-76
2021/06/21 08:56:08;;;;;;;7.00;1.20;;;25.60;99.90;;;;;;5093562;28;20165;-77
2021/06/21 08:58:34;;;;;;;5.03;1.20;;;26.10;99.90;;;;;;5092467;28;20108;-76
2021/06/21 09:00:59;;;;;;;4.78;1.40;;;26.50;99.90;;;;;;5074969;28;20067;-76
2021/06/21 09:03:25;;;;;;;2.88;0.90;;;26.90;99.90;;;;;;5080108;28;20442;-78
2021/06/21 09:05:51;;;;;;;4.43;1.10;;;27.20;99.90;;;;;;5071725;28;20799;-75
2021/06/21 09:08:16;;;;;;;5.88;1.33;;;27.30;99.90;;;;;;5056255;28;20021;-76
2021/06/21 09:10:42;;;;;;;1.75;0.73;;;26.60;99.90;;;;;;5054189;28;20035;-77
2021/06/21 09:13:12;;;;;;;3.53;1.33;;;26.40;99.90;;;;;;5064903;28;20029;-77
2021/06/21 09:16:04;;;;;;;4.38;1.33;;;25.80;99.90;;;;;;5054460;28;20017;-77
2021/06/21 09:18:38;;;;;;;4.53;1.10;;;26.60;99.90;;;;;;5071579;28;20039;-76
2021/06/21 09:21:23;;;;;;;7.03;1.15;;;27.40;99.90;;;;;;5057449;28;20074;-75
2021/06/21 09:23:53;;;;;;;6.25;1.70;;;28.40;99.90;;;;;;5081509;28;20020;-76
2021/06/21 09:26:21;;;;;;;3.58;1.35;;;29.30;99.10;;;;;;5072786;28;20033;-75
2021/06/21 09:28:47;;;;;;;4.85;1.23;;;29.80;97.30;;;;;;5074833;28;20031;-78
2021/06/21 09:31:13;;;;;;;3.47;1.20;;;29.90;97.20;;;;;;5074936;28;20028;-77
2021/06/21 09:33:40;;;;;;;2.35;1.00;;;30.00;97.10;;;;;;5076685;28;20029;-75
2021/06/21 09:36:06;;;;;;;3.20;1.20;;;29.90;94.10;;;;;;5074982;28;20016;-77
2021/06/21 09:38:31;;;;;;;3.72;1.27;;;30.60;95.90;;;;;;5076680;28;20035;-78
2021/06/21 09:40:58;;;;;;;3.20;1.20;;;31.10;94.90;;;;;;5058552;28;20029;-77
2021/06/21 09:43:27;;;;;;;5.88;1.02;;;31.00;92.10;;;;;;5078455;28;20119;-78
2021/06/21 09:46:13;;;;;;;3.80;1.10;;;30.60;92.20;;;;;;5078748;28;20028;-78
2021/06/21 09:48:53;;;;;;;2.45;1.00;;;30.00;91.80;;;;;;5076500;28;20383;-79
2021/06/21 09:51:33;;;;;;;5.25;1.20;;;29.60;93.10;;;;;;5060016;28;20028;-78
2021/06/21 09:54:03;;;;;;;4.50;1.02;;;30.40;92.90;;;;;;5082016;28;20020;-76
2021/06/21 09:56:48;;;;;;;1.97;0.90;;;30.60;91.40;;;;;;5076647;28;20486;-76
2021/06/21 09:59:17;;;;;;;4.82;1.20;;;31.10;90.70;;;;;;5074992;28;20032;-78
2021/06/21 10:01:42;;;;;;;7.35;0.98;;;30.40;91.70;;;;;;5073656;28;20052;-76
2021/06/21 10:04:24;;;;;;;3.40;1.45;;;30.20;92.00;;;;;;5055162;28;20129;-75
2021/06/21 10:06:50;;;;;;;4.80;1.20;;;30.10;92.80;;;;;;5073717;28;20028;-76
2021/06/21 10:09:15;;;;;;;5.28;1.20;;;29.50;93.30;;;;;;5073694;28;20390;-76
2021/06/21 10:11:43;;;;;;;5.03;1.20;;;28.60;92.90;;;;;;5073703;28;20021;-75
2021/06/21 10:14:14;;;;;;;3.17;0.82;;;28.40;93.60;;;;;;5074611;28;20066;-77
2021/06/21 10:16:41;;;;;;;6.13;1.00;;;28.50;94.90;;;;;;5077961;28;20027;-74
2021/06/21 10:19:08;;;;;;;3.97;1.10;;;27.60;93.10;;;;;;5073769;28;20282;-76
2021/06/21 10:21:35;;;;;;;3.58;1.08;;;27.50;96.40;;;;;;5074512;28;20115;-76
2021/06/21 10:24:01;;;;;;;4.60;1.08;;;28.10;95.40;;;;;;5074699;28;20040;-76
2021/06/21 10:26:27;;;;;;;4.45;1.33;;;28.30;94.60;;;;;;5073959;28;20152;-76
2021/06/21 10:28:54;;;;;;;4.18;1.35;;;28.10;94.10;;;;;;5074025;28;20028;-76
2021/06/21 10:31:29;;;;;;;5.38;1.20;;;28.20;94.60;;;;;;5073467;28;20024;-76
2021/06/21 10:34:04;;;;;;;9.70;1.50;;;28.50;93.40;;;;;;5072545;28;20021;-76
2021/06/21 10:36:57;;;;;;;2.33;1.20;;;28.30;92.50;;;;;;5073616;28;20029;-75
2021/06/21 10:39:25;;;;;;;5.13;1.40;;;28.00;93.90;;;;;;5067441;28;20036;-76
2021/06/21 10:42:07;;;;;;;5.45;1.50;;;28.50;94.10;;;;;;5059240;28;20119;-77
2021/06/21 10:44:41;;;;;;;5.80;1.10;;;29.00;94.10;;;;;;5052640;28;20037;-76
2021/06/21 10:47:27;;;;;;;4.60;1.13;;;28.50;91.80;;;;;;5054503;28;20487;-76
2021/06/21 10:50:04;;;;;;;4.95;1.08;;;28.50;95.00;;;;;;5053548;28;20063;-77
2021/06/21 10:52:30;;;;;;;8.68;1.17;;;28.90;93.00;;;;;;5056113;28;20035;-75
2021/06/21 10:55:21;;;;;;;4.95;1.10;;;29.00;93.20;;;;;;5059164;28;20057;-75
2021/06/21 10:57:48;;;;;;;3.07;1.00;;;28.90;92.60;;;;;;5055850;28;20056;-77
2021/06/21 11:00:16;;;;;;;1.73;1.00;;;29.40;91.60;;;;;;5051274;28;20407;-76
2021/06/21 11:02:42;;;;;;;2.05;0.80;;;29.60;92.00;;;;;;5057121;28;20033;-76
2021/06/21 11:05:09;;;;;;;6.25;1.00;;;30.00;92.60;;;;;;5054741;28;20175;-75
2021/06/21 11:07:35;;;;;;;3.40;1.00;;;30.00;91.20;;;;;;5054372;28;20021;-76
2021/06/21 11:10:02;;;;;;;4.80;1.10;;;29.70;90.40;;;;;;5051827;28;20025;-75
2021/06/21 11:12:30;;;;;;;4.85;1.15;;;29.50;92.50;;;;;;5054411;28;20017;-76
2021/06/21 11:15:09;;;;;;;2.80;1.20;;;28.90;88.60;;;;;;5053273;28;20087;-77
2021/06/21 11:17:50;;;;;;;6.15;1.10;;;28.70;92.50;;;;;;5054059;28;20029;-76
2021/06/21 11:20:42;;;;;;;2.00;0.90;;;29.00;90.50;;;;;;5052307;28;20025;-75
2021/06/21 11:23:10;;;;;;;2.67;1.05;;;29.30;90.60;;;;;;5052415;28;20495;-74
2021/06/21 11:25:56;;;;;;;5.10;1.75;;;29.80;90.70;;;;;;5050959;28;20391;-75
2021/06/21 11:28:41;;;;;;;5.30;1.25;;;30.10;88.70;;;;;;5045063;28;20046;-75
2021/06/21 11:31:19;;;;;;;2.75;0.90;;;29.80;90.30;;;;;;5031784;28;20048;-76
2021/06/21 11:33:58;;;;;;;1.45;0.60;;;30.40;90.10;;;;;;5032189;28;20480;-74
2021/06/21 11:36:46;;;;;;;3.72;1.15;;;30.70;84.80;;;;;;5033375;28;20063;-71
2021/06/21 11:39:22;;;;;;;2.38;0.80;;;31.10;86.10;;;;;;5043109;28;20032;-71
2021/06/21 11:41:53;;;;;;;6.25;1.25;;;30.80;84.00;;;;;;5051200;28;20117;-73
2021/06/21 11:44:40;;;;;;;1.87;1.00;;;30.70;84.70;;;;;;5047538;28;20109;-72
2021/06/21 11:47:21;;;;;;;3.72;1.30;;;30.80;86.00;;;;;;5043933;28;20044;-73
2021/06/21 11:49:49;;;;;;;4.60;0.93;;;30.20;84.90;;;;;;5049831;28;20013;-70
2021/06/21 11:52:28;;;;;;;2.40;0.90;;;30.30;85.20;;;;;;5052326;28;20068;-73
2021/06/21 11:54:55;;;;;;;3.03;0.80;;;31.00;84.40;;;;;;5052114;28;20088;-71
2021/06/21 11:57:24;;;;;;;5.97;0.90;;;31.30;83.10;;;;;;5070323;28;20040;-72
2021/06/21 11:59:51;;;;;;;3.33;0.60;;;30.80;79.00;;;;;;5069807;28;20496;-72
2021/06/21 12:02:21;;;;;;;3.58;1.00;;;30.30;82.90;;;;;;5072503;28;20020;-72
2021/06/21 12:04:49;;;;;;;1.98;1.00;;;30.30;83.40;;;;;;5071717;28;20104;-71
2021/06/21 12:07:33;;;;;;;2.58;0.80;;;30.30;82.10;;;;;;5071747;28;20017;-74
2021/06/21 12:10:00;;;;;;;2.55;0.73;;;29.70;82.20;;;;;;5042291;28;20175;-73
2021/06/21 12:12:32;;;;;;;4.85;0.90;;;30.10;78.70;;;;;;5051012;28;20025;-73
2021/06/21 12:14:58;;;;;;;2.40;0.80;;;30.30;80.90;;;;;;5052207;28;20487;-72
2021/06/21 12:17:26;;;;;;;1.98;0.82;;;30.90;80.00;;;;;;5053277;28;20108;-73
2021/06/21 12:20:19;;;;;;;3.15;0.73;;;31.20;77.10;;;;;;5051177;28;20025;-74
2021/06/21 12:23:06;;;;;;;5.32;1.17;;;31.90;81.50;;;;;;5050958;28;20036;-74
2021/06/21 12:25:46;;;;;;;1.20;0.63;;;32.10;71.20;;;;;;5052388;28;20100;-72
2021/06/21 12:28:15;;;;;;;1.63;0.80;;;32.10;74.00;;;;;;5059174;28;20028;-76
2021/06/21 12:30:55;;;;;;;5.32;0.60;;;32.30;76.40;;;;;;5065996;28;20021;-76
2021/06/21 12:33:23;;;;;;;1.27;0.80;;;32.70;75.50;;;;;;5055622;28;20047;-77
2021/06/21 12:36:11;;;;;;;1.80;0.90;;;32.90;72.10;;;;;;5071989;28;20012;-74
2021/06/21 12:38:44;;;;;;;3.60;0.90;;;33.00;73.80;;;;;;5060480;28;20026;-73
2021/06/21 12:41:22;;;;;;;1.65;1.13;;;33.10;71.50;;;;;;5032956;28;20446;-73
2021/06/21 12:44:05;;;;;;;2.42;0.52;;;33.10;68.80;;;;;;5041632;28;20116;-73
2021/06/21 12:46:34;;;;;;;4.03;0.70;;;33.10;66.90;;;;;;5051707;28;20118;-72
2021/06/21 12:49:04;;;;;;;3.33;0.55;;;31.70;65.00;;;;;;5053183;28;20067;-73
2021/06/21 12:51:31;;;;;;;1.35;0.70;;;30.90;66.50;;;;;;5054380;28;20021;-73
2021/06/21 12:53:57;;;;;;;1.65;0.95;;;31.30;69.00;;;;;;5053189;28;20025;-74
2021/06/21 12:56:24;;;;;;;1.17;0.50;;;31.40;70.50;;;;;;5054231;28;20028;-72